Time;durP1;ratioP1;P1;durP2;ratioP2;P2;SDS_P1;SDS_P2;PMS_P1;PMS_P2;Temp;Humidity;BMP_temperature;BMP_pressure;BME280_temperature;BME280_humidity;BME280_pressure;Samples;Min_cycle;Max_cycle;Signal;HPM_P1;HPM_P2
2022/06/01 00:00:35;;;;;;;;;3.00;3.00;;;;;17.44;41.71;101383.16;2456605;27;45404;-87
2022/06/01 00:01:46;;;;;;;;;3.00;3.00;;;;;17.42;41.58;101385.03;2459981;27;45411;-87
2022/06/01 00:02:57;;;;;;;;;2.50;2.50;;;;;17.41;42.43;101393.94;2451204;27;45164;-87
2022/06/01 00:04:07;;;;;;;;;2.00;2.00;;;;;17.38;42.50;101386.16;2456613;27;47409;-87
2022/06/01 00:05:19;;;;;;;;;2.00;2.00;;;;;17.37;41.82;101389.72;2463132;27;45297;-86
2022/06/01 00:06:29;;;;;;;;;2.00;2.00;;;;;17.34;41.79;101387.22;2467282;27;46473;-86
2022/06/01 00:07:40;;;;;;;;;4.00;2.75;;;;;17.32;41.94;101385.53;2458678;27;45492;-86
2022/06/01 00:08:50;;;;;;;;;4.00;2.50;;;;;17.31;42.43;101389.09;2450197;28;47278;-87
2022/06/01 00:10:00;;;;;;;;;3.75;2.00;;;;;17.29;42.40;101388.31;2450528;28;45210;-87
2022/06/01 00:11:11;;;;;;;;;2.25;2.25;;;;;17.29;42.63;101387.47;2450918;27;46379;-87
2022/06/01 00:12:22;;;;;;;;;3.00;3.00;;;;;17.27;43.08;101384.91;2450786;28;45235;-87
2022/06/01 00:13:33;;;;;;;;;2.00;2.00;;;;;17.26;42.85;101385.81;2450827;27;45291;-87
2022/06/01 00:14:43;;;;;;;;;2.00;2.00;;;;;17.25;43.04;101388.56;2450389;28;44647;-86
2022/06/01 00:15:54;;;;;;;;;3.00;3.00;;;;;17.23;42.96;101386.00;2450429;27;47262;-87
2022/06/01 00:17:04;;;;;;;;;3.00;3.00;;;;;17.23;42.99;101391.31;2458829;27;45256;-87
2022/06/01 00:18:15;;;;;;;;;2.00;2.00;;;;;17.20;43.35;101394.13;2459962;27;47109;-87
2022/06/01 00:19:26;;;;;;;;;2.50;2.50;;;;;17.17;43.16;101391.59;2459958;27;45257;-86
2022/06/01 00:20:36;;;;;;;;;2.00;2.00;;;;;17.16;43.59;101397.88;2456896;27;46497;-87
2022/06/01 00:23:16;;;;;;;;;2.00;2.00;;;;;17.09;43.20;101398.13;2450939;28;45789;-86
2022/06/01 00:24:27;;;;;;;;;5.00;2.75;;;;;17.06;43.01;101395.63;2451503;27;44796;-86
2022/06/01 00:25:37;;;;;;;;;4.00;3.00;;;;;17.05;43.63;101401.88;2454122;27;46092;-87
2022/06/01 00:26:50;;;;;;;;;2.00;2.00;;;;;17.03;43.19;101403.75;2459807;27;45337;-86
2022/06/01 00:28:02;;;;;;;;;3.75;2.50;;;;;17.01;43.46;101402.13;2450646;27;45657;-87
2022/06/01 00:29:12;;;;;;;;;2.25;2.25;;;;;16.98;43.72;101404.00;2457707;27;45266;-87
2022/06/01 00:30:22;;;;;;;;;2.50;2.00;;;;;16.97;43.64;101404.06;2461712;27;48286;-86
2022/06/01 00:31:33;;;;;;;;;4.00;4.00;;;;;16.94;43.85;101402.41;2464782;27;44600;-87
2022/06/01 00:32:43;;;;;;;;;2.75;2.75;;;;;16.92;44.13;101406.06;2457484;27;47229;-86
2022/06/01 00:33:54;;;;;;;;;3.00;3.00;;;;;16.89;44.03;101398.28;2462861;27;45149;-87
2022/06/01 00:35:06;;;;;;;;;3.00;3.00;;;;;16.88;44.16;101402.72;2467015;27;46622;-86
2022/06/01 00:36:17;;;;;;;;;5.00;2.25;;;;;16.86;43.72;101404.59;2450801;27;45234;-86
2022/06/01 00:37:27;;;;;;;;;3.00;3.00;;;;;16.84;43.63;101402.00;2442303;28;47888;-86
2022/06/01 00:38:38;;;;;;;;;3.00;3.00;;;;;16.81;44.42;101390.69;2452508;27;45316;-86
2022/06/01 00:39:48;;;;;;;;;3.00;3.00;;;;;16.78;44.34;101397.00;2460496;27;46243;-86
2022/06/01 00:40:59;;;;;;;;;2.50;2.50;;;;;16.77;44.20;101400.59;2455457;27;44771;-87
2022/06/01 00:42:12;;;;;;;;;4.00;2.00;;;;;16.74;44.21;101400.75;2453411;27;47935;-87
2022/06/01 00:43:25;;;;;;;;;2.25;2.25;;;;;16.72;44.23;101397.28;2450397;28;44701;-87
2022/06/01 00:44:36;;;;;;;;;3.00;3.00;;;;;16.70;44.41;101399.16;2459129;27;46318;-87
2022/06/01 00:45:47;;;;;;;;;2.00;2.00;;;;;16.68;44.66;101393.94;2455633;27;45300;-86
2022/06/01 00:46:57;;;;;;;;;2.00;2.00;;;;;16.67;44.51;101399.34;2450798;27;47362;-87
2022/06/01 00:48:08;;;;;;;;;3.25;3.00;;;;;16.64;44.51;101397.69;2460026;27;44770;-87
2022/06/01 00:49:21;;;;;;;;;3.00;3.00;;;;;16.62;44.84;101402.19;2454479;27;46580;-87
2022/06/01 00:50:36;;;;;;;;;4.75;3.25;;;;;16.59;44.65;101399.69;2451030;27;45280;-86
2022/06/01 00:51:48;;;;;;;;;4.25;3.00;;;;;16.58;44.93;101403.28;2450755;27;45373;-87
2022/06/01 00:53:05;;;;;;;;;2.25;2.25;;;;;16.54;44.95;101400.75;2450765;27;45260;-87
2022/06/01 00:54:16;;;;;;;;;1.00;1.00;;;;;16.53;45.07;101400.84;2450701;28;46398;-86
2022/06/01 00:55:32;;;;;;;;;1.25;1.25;;;;;16.51;45.13;101400.06;2452204;27;45482;-86
2022/06/01 00:56:46;;;;;;;;;5.00;3.00;;;;;16.50;44.88;101403.63;2460480;27;45250;-86
2022/06/01 00:58:06;;;;;;;;;4.50;2.00;;;;;16.48;45.22;101405.50;2450645;27;44784;-86
2022/06/01 00:59:24;;;;;;;;;2.00;2.00;;;;;16.46;45.23;101407.38;2453924;27;45527;-86
2022/06/01 01:00:38;;;;;;;;;3.50;3.00;;;;;16.43;45.52;101403.06;2451020;27;45299;-86
2022/06/01 01:01:51;;;;;;;;;2.00;2.00;;;;;16.42;45.77;101406.69;2450640;27;45358;-86
2022/06/01 01:03:05;;;;;;;;;2.75;2.75;;;;;16.40;45.52;101406.72;2450722;28;45256;-86
2022/06/01 01:04:16;;;;;;;;;3.00;3.00;;;;;16.38;45.72;101411.25;2456281;27;45435;-86
2022/06/01 01:05:27;;;;;;;;;3.25;3.00;;;;;16.36;45.75;101412.25;2459453;27;45425;-86
2022/06/01 01:06:40;;;;;;;;;2.50;2.50;;;;;16.33;45.72;101407.97;2454545;27;46971;-86
2022/06/01 01:07:53;;;;;;;;;2.50;2.00;;;;;16.33;45.67;101407.09;2451832;27;45301;-86
2022/06/01 01:09:05;;;;;;;;;2.00;2.00;;;;;16.30;45.75;101406.31;2454476;27;47279;-86
2022/06/01 01:10:16;;;;;;;;;3.25;2.50;;;;;16.28;46.15;101409.97;2461351;27;44727;-87
2022/06/01 01:11:51;;;;;;;;;4.75;3.25;;;;;16.26;45.70;101406.53;2460166;27;47502;-86
2022/06/01 01:13:05;;;;;;;;;3.00;3.00;;;;;16.22;46.25;101404.97;2462926;27;44763;-86
2022/06/01 01:14:20;;;;;;;;;2.00;2.00;;;;;16.21;46.23;101406.75;2464147;27;46957;-86
2022/06/01 01:15:34;;;;;;;;;2.50;2.50;;;;;16.18;46.23;101405.09;2451452;28;45303;-86
2022/06/01 01:16:44;;;;;;;;;2.00;2.00;;;;;16.17;46.46;101407.81;2451700;27;46245;-86
2022/06/01 01:17:55;;;;;;;;;2.75;2.75;;;;;16.16;46.34;101406.97;2455008;27;45310;-86
2022/06/01 01:19:16;;;;;;;;;3.00;3.00;;;;;16.15;46.51;101401.72;2459469;27;45295;-86
2022/06/01 01:20:28;;;;;;;;;3.00;2.00;;;;;16.12;46.55;101405.38;2453596;27;45329;-86
2022/06/01 01:21:39;;;;;;;;;2.50;2.50;;;;;16.12;46.57;101402.72;2457326;27;46153;-86
2022/06/01 01:22:57;;;;;;;;;3.00;3.00;;;;;16.10;46.54;101399.25;2462165;27;45140;-86
2022/06/01 01:24:13;;;;;;;;;2.00;2.00;;;;;16.08;46.56;101399.34;2462154;27;46258;-86
2022/06/01 01:25:32;;;;;;;;;2.50;2.50;;;;;16.07;46.66;101396.78;2462143;27;45223;-86
2022/06/01 01:26:49;;;;;;;;;3.00;2.00;;;;;16.05;46.99;101398.66;2461194;27;48395;-86
2022/06/01 01:28:03;;;;;;;;;3.00;3.00;;;;;16.04;46.97;101399.53;2454874;27;44586;-86
2022/06/01 01:29:15;;;;;;;;;2.00;2.00;;;;;16.03;46.65;101397.78;2461144;27;46210;-86
2022/06/01 01:30:40;;;;;;;;;2.75;1.50;;;;;16.01;46.97;101395.22;2457686;27;45428;-86
2022/06/01 01:31:50;;;;;;;;;2.25;2.00;;;;;16.01;46.77;101403.19;2453345;27;45410;-86
2022/06/01 01:33:11;;;;;;;;;2.25;2.25;;;;;15.98;46.96;101401.53;2462198;27;45270;-86
2022/06/01 01:34:21;;;;;;;;;2.00;2.00;;;;;15.97;46.91;101399.81;2462081;27;46502;-86
2022/06/01 01:35:31;;;;;;;;;3.00;3.00;;;;;15.96;47.23;101407.81;2455737;27;44662;-86
2022/06/01 01:36:48;;;;;;;;;3.50;3.00;;;;;15.95;47.40;101406.97;2455763;27;47283;-86
2022/06/01 01:38:06;;;;;;;;;3.00;3.00;;;;;15.94;47.10;101402.59;2459859;27;45321;-85
2022/06/01 01:39:17;;;;;;;;;2.50;2.50;;;;;15.92;47.04;101396.53;2454833;27;46542;-85
2022/06/01 01:40:27;;;;;;;;;4.00;2.00;;;;;15.91;47.12;101402.75;2458836;27;45303;-86
2022/06/01 01:41:49;;;;;;;;;4.50;4.00;;;;;15.89;47.21;101401.94;2452576;27;47029;-86
2022/06/01 01:43:01;;;;;;;;;2.00;2.00;;;;;15.88;47.41;101397.56;2460461;27;45259;-86
2022/06/01 01:44:18;;;;;;;;;3.25;2.00;;;;;15.88;47.25;101400.22;2451228;28;48240;-86
2022/06/01 01:45:31;;;;;;;;;2.00;2.00;;;;;15.85;47.50;101403.88;2459982;27;45412;-86
2022/06/01 01:46:47;;;;;;;;;2.50;2.50;;;;;15.85;47.38;101409.16;2456344;27;48267;-86
2022/06/01 01:47:58;;;;;;;;;2.00;2.00;;;;;15.81;47.59;101399.63;2446759;27;44700;-86
2022/06/01 01:49:09;;;;;;;;;3.25;2.75;;;;;15.82;47.34;101400.50;2457119;27;48325;-86
2022/06/01 01:50:20;;;;;;;;;2.50;2.50;;;;;15.80;47.79;101405.03;2457244;27;44725;-86
2022/06/01 01:51:32;;;;;;;;;2.25;2.25;;;;;15.80;47.78;101402.38;2451302;27;45556;-86
2022/06/01 01:52:44;;;;;;;;;2.25;2.00;;;;;15.79;47.45;101403.28;2452092;27;45215;-86
2022/06/01 01:53:56;;;;;;;;;2.00;2.00;;;;;15.77;47.67;101397.19;2451967;27;46244;-86
2022/06/01 01:55:35;;;;;;;;;3.00;2.50;;;;;15.75;47.50;101402.56;2460327;27;45226;-86
2022/06/01 01:57:17;;;;;;;;;2.75;2.75;;;;;15.72;47.85;101395.63;2451830;27;46548;-86
2022/06/01 01:58:27;;;;;;;;;3.00;2.00;;;;;15.70;47.98;101392.19;2452435;27;45443;-86
2022/06/01 01:59:55;;;;;;;;;3.00;3.00;;;;;15.69;47.86;101395.75;2458889;27;45852;-86
2022/06/01 02:01:14;;;;;;;;;3.75;2.00;;;;;15.66;47.62;101387.06;2452902;27;44677;-86
2022/06/01 02:02:32;;;;;;;;;2.50;2.50;;;;;15.64;47.71;101382.72;2454993;27;47657;-86
2022/06/01 02:03:54;;;;;;;;;3.00;3.00;;;;;15.63;48.01;101382.78;2465018;27;44579;-86
2022/06/01 02:07:07;;;;;;;;;2.25;2.25;;;;;15.60;48.20;101382.91;2453027;27;45431;-86
2022/06/01 02:08:38;;;;;;;;;2.75;2.75;;;;;15.59;48.29;101378.53;2451992;27;45768;-86
2022/06/01 02:13:10;;;;;;;;;3.00;2.25;;;;;15.53;48.60;101380.50;2461767;27;45152;-86
2022/06/01 02:14:23;;;;;;;;;2.25;2.25;;;;;15.51;48.55;101371.78;2460819;27;47247;-86
2022/06/01 02:15:38;;;;;;;;;3.50;3.00;;;;;15.50;48.51;101372.72;2462415;27;44554;-85
2022/06/01 02:16:59;;;;;;;;;3.00;3.00;;;;;15.50;48.45;101377.16;2457854;27;46603;-86
2022/06/01 02:18:19;;;;;;;;;3.25;3.00;;;;;15.46;48.82;101375.56;2454375;27;45295;-85
2022/06/01 02:19:47;;;;;;;;;3.00;3.00;;;;;15.45;48.60;101372.06;2454940;27;48560;-85
2022/06/01 02:21:04;;;;;;;;;2.75;2.75;;;;;15.43;48.60;101370.41;2461542;27;45344;-86
2022/06/01 02:22:15;;;;;;;;;2.25;2.25;;;;;15.41;48.61;101371.31;2450943;27;48542;-86
2022/06/01 02:23:29;;;;;;;;;2.50;2.00;;;;;15.41;48.74;101365.16;2444133;28;45306;-86
2022/06/01 02:24:40;;;;;;;;;4.00;4.00;;;;;15.39;48.80;101364.38;2453576;27;47161;-85
2022/06/01 02:25:53;;;;;;;;;3.00;3.00;;;;;15.36;48.83;101362.72;2451424;27;45495;-86
2022/06/01 02:27:04;;;;;;;;;3.75;3.75;;;;;15.35;48.89;101361.00;2451046;27;46206;-86
2022/06/01 02:28:15;;;;;;;;;3.00;3.00;;;;;15.33;48.67;101365.50;2459914;27;45459;-86
2022/06/01 02:29:39;;;;;;;;;3.50;2.75;;;;;15.32;48.76;101366.44;2461487;27;45882;-86
2022/06/01 02:30:50;;;;;;;;;3.00;3.00;;;;;15.29;48.93;101364.78;2460937;27;44609;-86
2022/06/01 02:32:03;;;;;;;;;5.00;3.75;;;;;15.27;48.77;101358.69;2463055;27;47266;-86
2022/06/01 02:33:18;;;;;;;;;2.50;2.50;;;;;15.27;48.73;101365.75;2460868;27;45250;-86
2022/06/01 02:34:30;;;;;;;;;3.50;3.00;;;;;15.25;49.13;101364.97;2461084;27;46274;-86
2022/06/01 02:35:45;;;;;;;;;5.00;4.00;;;;;15.25;49.22;101371.13;2461737;27;44585;-86
2022/06/01 02:36:58;;;;;;;;;6.00;3.25;;;;;15.24;49.01;101366.75;2461409;27;45320;-86
2022/06/01 02:38:14;;;;;;;;;3.00;3.00;;;;;15.23;49.35;101370.34;2453169;27;45470;-86
2022/06/01 02:39:27;;;;;;;;;4.75;3.50;;;;;15.21;49.37;101363.38;2444575;27;47188;-86
2022/06/01 02:40:38;;;;;;;;;4.50;4.00;;;;;15.19;49.39;101366.09;2461173;27;45335;-86
2022/06/01 02:43:18;;;;;;;;;3.00;3.00;;;;;15.16;49.49;101363.59;2451724;27;44770;-86
2022/06/01 02:44:28;;;;;;;;;7.50;4.50;;;;;15.13;49.16;101369.88;2451461;27;45476;-86
2022/06/01 02:45:39;;;;;;;;;6.50;4.00;;;;;15.13;49.63;101364.59;2451818;27;45254;-86
2022/06/01 02:46:50;;;;;;;;;4.25;3.50;;;;;15.13;49.69;101371.66;2458820;27;47843;-86
2022/06/01 02:48:02;;;;;;;;;4.00;4.00;;;;;15.13;49.77;101363.72;2447476;27;45240;-86
2022/06/01 02:49:13;;;;;;;;;3.25;3.25;;;;;15.12;49.67;101367.28;2451085;27;45689;-86
2022/06/01 02:50:26;;;;;;;;;5.00;4.25;;;;;15.10;49.80;101363.84;2459958;27;45261;-86
2022/06/01 02:51:37;;;;;;;;;6.50;5.25;;;;;15.09;49.72;101352.38;2461333;27;45396;-86
2022/06/01 02:52:47;;;;;;;;;5.25;4.00;;;;;15.08;49.36;101355.97;2461432;27;45259;-86
2022/06/01 02:53:58;;;;;;;;;4.00;3.00;;;;;15.07;49.68;101364.81;2461447;27;45391;-86
2022/06/01 02:55:10;;;;;;;;;5.50;4.00;;;;;15.06;49.87;101361.31;2454709;27;45329;-86
2022/06/01 02:56:21;;;;;;;;;5.75;4.75;;;;;15.03;50.05;101358.81;2446584;28;48472;-86
2022/06/01 02:57:34;;;;;;;;;6.75;5.25;;;;;15.04;49.98;101357.00;2443806;27;45618;-86
2022/06/01 02:58:45;;;;;;;;;6.00;5.00;;;;;15.02;49.75;101354.44;2451014;27;45809;-86
2022/06/01 02:59:55;;;;;;;;;7.25;6.00;;;;;15.01;49.77;101360.66;2451474;27;45309;-86
2022/06/01 03:01:06;;;;;;;;;7.75;4.75;;;;;15.00;49.98;101361.59;2450929;27;47992;-86
2022/06/01 03:02:17;;;;;;;;;6.00;6.00;;;;;15.00;49.95;101361.59;2461025;27;45403;-86
2022/06/01 03:03:27;;;;;;;;;7.00;3.75;;;;;14.98;50.58;101354.63;2460445;27;48373;-86
2022/06/01 03:04:40;;;;;;;;;5.75;5.75;;;;;14.96;50.33;101358.19;2458199;27;45299;-86
2022/06/01 03:05:50;;;;;;;;;9.75;5.75;;;;;14.96;50.14;101352.88;2451495;27;45213;-86
2022/06/01 03:07:02;;;;;;;;;6.25;6.25;;;;;14.95;50.19;101352.97;2456989;27;45427;-85
2022/06/01 03:08:12;;;;;;;;;11.75;8.75;;;;;14.94;50.42;101354.75;2459703;27;46103;-86
2022/06/01 03:09:23;;;;;;;;;8.50;8.50;;;;;14.93;50.39;101357.47;2460717;27;45278;-86
2022/06/01 03:10:34;;;;;;;;;13.25;11.25;;;;;14.92;50.54;101358.38;2451347;27;46149;-86
2022/06/01 03:11:44;;;;;;;;;6.00;5.50;;;;;14.93;50.42;101357.47;2456808;27;45229;-86
2022/06/01 03:12:55;;;;;;;;;8.25;7.25;;;;;14.91;50.37;101360.19;2460911;27;45787;-86
2022/06/01 03:14:06;;;;;;;;;10.50;7.25;;;;;14.89;50.31;101361.19;2460526;27;45325;-86
2022/06/01 03:15:19;;;;;;;;;9.75;8.00;;;;;14.89;50.32;101359.38;2460566;27;45275;-86
2022/06/01 03:16:29;;;;;;;;;10.25;8.25;;;;;14.89;50.49;101366.47;2454026;27;45272;-86
2022/06/01 03:17:39;;;;;;;;;10.75;8.50;;;;;14.87;50.50;101368.28;2450655;27;45495;-86
2022/06/01 03:18:50;;;;;;;;;9.50;8.50;;;;;14.86;50.91;101362.16;2451554;27;45218;-86
2022/06/01 03:20:01;;;;;;;;;6.00;6.00;;;;;14.84;50.69;101364.81;2450510;27;47944;-86
2022/06/01 03:21:11;;;;;;;;;11.00;9.00;;;;;14.83;50.93;101368.41;2450906;28;45265;-86
2022/06/01 03:22:21;;;;;;;;;8.00;7.00;;;;;14.83;50.94;101370.19;2451376;27;46536;-86
2022/06/01 03:23:32;;;;;;;;;10.50;8.75;;;;;14.82;50.77;101371.97;2451357;27;45206;-86
2022/06/01 03:24:42;;;;;;;;;8.00;7.75;;;;;14.80;50.58;101365.88;2450491;28;46432;-86
2022/06/01 03:25:53;;;;;;;;;7.25;6.75;;;;;14.80;50.50;101367.66;2451518;27;45285;-86
2022/06/01 03:27:03;;;;;;;;;12.50;8.25;;;;;14.79;50.92;101377.38;2456862;27;46757;-86
2022/06/01 03:28:14;;;;;;;;;10.00;8.25;;;;;14.77;50.99;101373.06;2453040;27;45690;-86
2022/06/01 03:29:24;;;;;;;;;11.75;8.25;;;;;14.77;51.15;101376.59;2460637;27;46257;-86
2022/06/01 03:30:35;;;;;;;;;9.50;9.25;;;;;14.74;50.84;101374.91;2451951;27;45323;-86
2022/06/01 03:31:45;;;;;;;;;11.00;9.25;;;;;14.73;51.13;101375.00;2450222;28;48288;-86
2022/06/01 03:32:57;;;;;;;;;9.25;9.25;;;;;14.71;51.03;101374.19;2450723;27;45267;-86
2022/06/01 03:34:08;;;;;;;;;9.25;9.25;;;;;14.71;51.09;101374.19;2461113;27;46287;-86
2022/06/01 03:35:22;;;;;;;;;10.75;7.75;;;;;14.70;51.15;101372.47;2452336;27;44717;-86
2022/06/01 03:36:32;;;;;;;;;11.50;9.75;;;;;14.70;51.07;101369.81;2455928;27;46532;-86
2022/06/01 03:37:43;;;;;;;;;10.50;9.75;;;;;14.67;51.21;101378.72;2460259;27;45172;-86
2022/06/01 03:38:53;;;;;;;;;14.00;10.25;;;;;14.68;51.42;101375.19;2449906;28;48444;-85
2022/06/01 03:40:05;;;;;;;;;12.50;11.00;;;;;14.68;51.34;101379.59;2450610;28;44644;-86
2022/06/01 03:41:15;;;;;;;;;10.50;9.25;;;;;14.66;51.35;101377.03;2456968;27;46835;-86
2022/06/01 03:42:26;;;;;;;;;12.25;10.75;;;;;14.67;51.37;101375.25;2452935;27;45345;-86
2022/06/01 03:46:35;;;;;;;;;8.00;7.00;;;;;14.61;51.56;101382.50;2451163;28;45793;-86
2022/06/01 03:47:46;;;;;;;;;13.25;9.75;;;;;14.60;51.49;101377.25;2459182;27;45369;-86
2022/06/01 03:48:56;;;;;;;;;7.50;6.50;;;;;14.60;51.61;101390.50;2452682;27;48194;-86
2022/06/01 03:50:08;;;;;;;;;15.25;12.25;;;;;14.59;51.66;101386.13;2459156;27;45332;-86
2022/06/01 03:51:19;;;;;;;;;11.25;10.00;;;;;14.58;51.43;101392.34;2457321;27;47466;-86
2022/06/01 03:52:30;;;;;;;;;14.25;11.00;;;;;14.59;51.63;101391.44;2450567;27;45266;-86
2022/06/01 03:53:40;;;;;;;;;15.00;11.25;;;;;14.57;51.76;101388.00;2454944;27;46688;-86
2022/06/01 03:54:51;;;;;;;;;17.25;12.25;;;;;14.56;51.93;101387.13;2460162;27;45183;-86
2022/06/01 03:56:02;;;;;;;;;14.75;9.25;;;;;14.55;51.83;101387.16;2453066;27;47058;-86
2022/06/01 03:57:13;;;;;;;;;14.00;13.50;;;;;14.55;51.95;101395.97;2460992;27;44602;-86
2022/06/01 03:58:23;;;;;;;;;15.00;10.75;;;;;14.54;51.82;101388.09;2453328;27;46184;-86
2022/06/01 03:59:35;;;;;;;;;13.75;10.25;;;;;14.54;51.83;101398.69;2459528;27;45225;-86
2022/06/01 04:00:46;;;;;;;;;16.25;14.00;;;;;14.53;51.63;101395.16;2460307;27;45558;-86
2022/06/01 04:02:05;;;;;;;;;11.50;9.50;;;;;14.52;51.67;101390.78;2460102;27;44770;-86
2022/06/01 04:03:16;;;;;;;;;14.25;11.50;;;;;14.50;51.72;101390.84;2460383;27;46308;-86
2022/06/01 04:04:26;;;;;;;;;12.50;12.50;;;;;14.50;51.64;101398.78;2461034;27;45313;-86
2022/06/01 04:05:37;;;;;;;;;12.00;11.50;;;;;14.50;51.55;101396.16;2460734;27;46547;-86
2022/06/01 04:06:47;;;;;;;;;13.25;9.75;;;;;14.48;51.77;101397.13;2460777;27;45613;-86
2022/06/01 04:07:57;;;;;;;;;15.25;10.75;;;;;14.47;51.79;101390.13;2459942;27;48078;-86
2022/06/01 04:09:08;;;;;;;;;19.25;13.50;;;;;14.46;51.56;101396.31;2451857;27;44817;-86
2022/06/01 04:10:20;;;;;;;;;14.00;11.25;;;;;14.42;51.41;101389.44;2459396;27;47371;-85
2022/06/01 04:11:30;;;;;;;;;16.50;13.00;;;;;14.38;51.76;101393.97;2450501;28;45276;-86
2022/06/01 04:12:41;;;;;;;;;16.50;13.75;;;;;14.37;51.99;101387.81;2457617;27;45372;-86
2022/06/01 04:13:51;;;;;;;;;15.25;13.50;;;;;14.38;52.00;101394.84;2460703;27;45410;-86
2022/06/01 04:15:04;;;;;;;;;16.25;13.00;;;;;14.39;51.91;101391.28;2460929;27;45632;-86
2022/06/01 04:16:18;;;;;;;;;15.50;13.00;;;;;14.39;51.85;101387.78;2460758;27;45287;-86
2022/06/01 04:17:28;;;;;;;;;16.25;15.50;;;;;14.39;52.27;101387.78;2460676;27;46180;-86
2022/06/01 04:18:39;;;;;;;;;12.75;12.75;;;;;14.39;52.08;101388.66;2456098;27;45355;-86
2022/06/01 04:19:49;;;;;;;;;14.50;10.75;;;;;14.40;51.96;101387.72;2460337;27;45242;-86
2022/06/01 04:21:00;;;;;;;;;13.25;13.25;;;;;14.40;52.34;101387.72;2451184;27;45300;-86
2022/06/01 04:22:13;;;;;;;;;14.75;10.25;;;;;14.40;52.22;101393.00;2456350;27;48109;-86
2022/06/01 04:23:23;;;;;;;;;16.25;15.00;;;;;14.42;52.69;101397.38;2457407;27;45278;-86
2022/06/01 04:24:34;;;;;;;;;15.00;13.75;;;;;14.42;52.40;101397.38;2450051;28;48152;-86
2022/06/01 04:25:45;;;;;;;;;15.25;11.25;;;;;14.41;52.50;101396.50;2459875;27;45340;-86
2022/06/01 04:26:56;;;;;;;;;11.25;10.00;;;;;14.41;52.21;101404.44;2459674;27;47021;-86
2022/06/01 04:28:06;;;;;;;;;11.00;7.75;;;;;14.41;52.45;101404.44;2458688;27;45300;-86
2022/06/01 04:29:16;;;;;;;;;15.50;10.25;;;;;14.40;52.88;101411.50;2453421;27;48155;-86
2022/06/01 04:30:27;;;;;;;;;15.50;13.00;;;;;14.41;52.72;101409.72;2449255;27;45238;-86
2022/06/01 04:31:38;;;;;;;;;10.00;9.25;;;;;14.42;52.61;101406.16;2459912;27;47164;-86
2022/06/01 04:32:50;;;;;;;;;14.25;14.25;;;;;14.42;52.76;101415.91;2450136;28;45330;-86
2022/06/01 04:34:01;;;;;;;;;12.00;11.50;;;;;14.42;52.58;101418.53;2452229;27;47677;-85
2022/06/01 04:35:12;;;;;;;;;15.25;12.00;;;;;14.42;52.53;101415.91;2457506;27;45353;-86
2022/06/01 04:36:22;;;;;;;;;16.75;14.50;;;;;14.42;52.47;101421.19;2457904;27;46116;-86
2022/06/01 04:37:33;;;;;;;;;18.25;14.75;;;;;14.42;52.58;101418.53;2451973;27;45308;-86
2022/06/01 04:38:43;;;;;;;;;13.50;10.75;;;;;14.43;52.68;101417.59;2451810;27;46330;-85
2022/06/01 04:39:54;;;;;;;;;22.50;15.00;;;;;14.42;52.72;101421.19;2456042;27;45468;-85
2022/06/01 04:41:04;;;;;;;;;14.75;14.25;;;;;14.43;52.70;101417.59;2456566;27;45435;-86
2022/06/01 04:42:15;;;;;;;;;14.25;13.50;;;;;14.42;52.78;101418.53;2455575;27;45247;-86
2022/06/01 04:43:25;;;;;;;;;12.50;11.00;;;;;14.41;53.13;101417.66;2451479;27;46521;-86
2022/06/01 04:44:35;;;;;;;;;13.00;10.75;;;;;14.42;52.69;101427.31;2452177;28;44617;-86
2022/06/01 04:45:48;;;;;;;;;13.00;10.25;;;;;14.43;52.99;101417.59;2460028;27;47121;-86
2022/06/01 04:46:59;;;;;;;;;12.25;10.25;;;;;14.42;53.09;101424.66;2449075;27;44849;-85
2022/06/01 04:48:10;;;;;;;;;14.00;9.25;;;;;14.42;53.18;101416.72;2459252;27;45278;-85
2022/06/01 04:49:21;;;;;;;;;10.50;10.00;;;;;14.43;52.78;101429.03;2457862;27;45365;-85
2022/06/01 04:50:31;;;;;;;;;10.50;8.50;;;;;14.43;53.12;101420.25;2449161;27;47065;-86
2022/06/01 04:51:41;;;;;;;;;9.75;8.75;;;;;14.45;53.22;101426.34;2448574;27;45345;-87
2022/06/01 04:52:52;;;;;;;;;11.50;9.75;;;;;14.45;53.42;101428.97;2456522;27;45500;-86
2022/06/01 04:54:04;;;;;;;;;10.00;8.25;;;;;14.46;53.15;101428.06;2457101;27;45309;-86
2022/06/01 04:55:14;;;;;;;;;9.50;9.00;;;;;14.45;53.29;101435.13;2461334;27;48054;-86
2022/06/01 04:56:25;;;;;;;;;5.75;5.75;;;;;14.46;53.35;101430.72;2451910;27;45484;-85
2022/06/01 04:57:36;;;;;;;;;8.50;7.25;;;;;14.47;53.47;101430.63;2451371;27;45258;-86
2022/06/01 04:58:47;;;;;;;;;9.00;8.50;;;;;14.48;53.44;101436.81;2459795;27;45363;-86
2022/06/01 04:59:57;;;;;;;;;9.50;7.50;;;;;14.48;53.63;101440.31;2461143;27;45429;-86
2022/06/01 05:01:08;;;;;;;;;5.25;4.75;;;;;14.50;53.47;101442.88;2455647;27;45506;-85
2022/06/01 05:02:18;;;;;;;;;7.75;6.00;;;;;14.51;53.46;101449.91;2453874;27;45962;-86
2022/06/01 05:03:29;;;;;;;;;6.00;6.00;;;;;14.54;53.64;101447.16;2461526;27;45354;-86
2022/06/01 05:04:40;;;;;;;;;7.75;6.00;;;;;14.54;53.77;101444.50;2452633;27;46916;-86
2022/06/01 05:05:50;;;;;;;;;7.25;5.75;;;;;14.55;53.85;101440.94;2452638;27;45465;-86
2022/06/01 05:07:02;;;;;;;;;10.00;6.00;;;;;14.58;53.95;101437.31;2453861;27;47089;-86
2022/06/01 05:08:14;;;;;;;;;7.25;4.75;;;;;14.59;53.73;101442.53;2459676;27;45278;-86
2022/06/01 05:09:24;;;;;;;;;5.50;5.50;;;;;14.60;53.86;101441.63;2456171;27;47343;-86
2022/06/01 05:10:35;;;;;;;;;5.00;5.00;;;;;14.63;53.60;101443.28;2453705;27;45219;-86
2022/06/01 05:11:46;;;;;;;;;8.75;8.00;;;;;14.64;52.93;101442.38;2457100;27;47999;-86
2022/06/01 05:12:56;;;;;;;;;6.75;6.00;;;;;14.67;53.30;101451.97;2454247;27;45152;-86
2022/06/01 05:14:06;;;;;;;;;5.00;4.50;;;;;14.68;53.36;101448.41;2452483;27;47934;-85
2022/06/01 05:15:17;;;;;;;;;8.25;6.00;;;;;14.69;53.47;101450.13;2454459;27;44747;-86
2022/06/01 05:16:27;;;;;;;;;8.00;7.75;;;;;14.70;52.68;101442.13;2451518;27;45347;-85
2022/06/01 05:17:38;;;;;;;;;5.75;4.50;;;;;14.72;52.72;101445.56;2452783;27;45248;-85
2022/06/01 05:18:48;;;;;;;;;6.00;4.75;;;;;14.75;53.09;101441.94;2459316;27;46921;-85
2022/06/01 05:20:00;;;;;;;;;8.25;6.00;;;;;14.79;53.47;101443.53;2449529;27;45300;-86
2022/06/01 05:21:10;;;;;;;;;7.25;5.75;;;;;14.82;53.09;101451.34;2457590;27;45397;-86
2022/06/01 05:22:20;;;;;;;;;6.25;6.25;;;;;14.83;53.16;101442.50;2456905;27;45672;-87
2022/06/01 05:23:31;;;;;;;;;5.25;5.25;;;;;14.87;53.33;101445.03;2458414;27;48008;-86
2022/06/01 05:24:41;;;;;;;;;6.50;6.00;;;;;14.88;53.37;101437.06;2456900;27;45191;-86
2022/06/01 05:25:53;;;;;;;;;6.25;6.25;;;;;14.93;53.36;101442.16;2458473;27;46443;-87
2022/06/01 05:27:04;;;;;;;;;8.75;6.50;;;;;14.95;53.15;101440.31;2453706;27;45329;-86
2022/06/01 05:28:21;;;;;;;;;6.00;6.00;;;;;14.98;53.13;101442.84;2459398;27;47526;-85
2022/06/01 05:29:32;;;;;;;;;8.25;7.25;;;;;15.00;52.50;101442.78;2456503;27;45281;-86
2022/06/01 05:30:42;;;;;;;;;10.00;7.50;;;;;15.01;52.64;101440.09;2451984;27;45372;-86
2022/06/01 05:31:52;;;;;;;;;7.25;5.75;;;;;15.03;52.28;101443.53;2459453;27;44834;-86
2022/06/01 05:33:03;;;;;;;;;7.75;7.00;;;;;15.04;52.95;101434.63;2459284;27;45442;-86
2022/06/01 05:34:14;;;;;;;;;7.75;6.00;;;;;15.09;53.33;101441.56;2452284;27;45247;-86
2022/06/01 05:35:25;;;;;;;;;7.50;6.00;;;;;15.13;53.12;101440.50;2452525;27;46541;-86
2022/06/01 05:36:36;;;;;;;;;8.25;7.25;;;;;15.15;52.90;101443.94;2461439;27;45175;-86
2022/06/01 05:37:46;;;;;;;;;8.75;6.50;;;;;15.17;53.02;101439.44;2457854;27;47592;-86
2022/06/01 05:38:57;;;;;;;;;5.75;5.75;;;;;15.21;52.89;101441.00;2457282;27;44700;-86
2022/06/01 05:40:08;;;;;;;;;7.25;6.25;;;;;15.23;52.93;101443.63;2460899;27;48355;-85
2022/06/01 05:41:18;;;;;;;;;6.00;6.00;;;;;15.26;52.35;101443.50;2454875;27;45374;-87
2022/06/01 05:42:29;;;;;;;;;6.00;6.00;;;;;15.27;52.63;101434.63;2452570;27;46407;-86
2022/06/01 05:43:39;;;;;;;;;4.75;4.75;;;;;15.31;52.91;101441.50;2460254;27;44729;-86
2022/06/01 05:44:49;;;;;;;;;8.50;7.50;;;;;15.33;51.88;101433.50;2458570;27;45257;-86
2022/06/01 05:46:00;;;;;;;;;9.25;7.00;;;;;15.34;51.85;101437.84;2462145;27;45188;-86